Time;durP1;ratioP1;P1;durP2;ratioP2;P2;SDS_P1;SDS_P2;PMS_P1;PMS_P2;Temp;Humidity;BMP_temperature;BMP_pressure;BME280_temperature;BME280_humidity;BME280_pressure;Samples;Min_cycle;Max_cycle;Signal;HPM_P1;HPM_P2
2021/03/25 00:00:47;;;;;;;27.10;11.32;;;11.70;74.90;;;;;;5073273;28;20020;-65
2021/03/25 00:03:17;;;;;;;17.48;7.78;;;11.70;74.20;;;;;;5073466;28;20439;-65
2021/03/25 00:05:44;;;;;;;28.05;10.48;;;11.70;74.40;;;;;;5072784;28;20028;-65
2021/03/25 00:08:13;;;;;;;23.60;10.93;;;11.60;74.40;;;;;;5073134;28;20082;-65
2021/03/25 00:10:39;;;;;;;22.95;9.35;;;11.60;74.30;;;;;;5073565;28;20055;-65
2021/03/25 00:13:05;;;;;;;23.95;8.40;;;11.60;74.40;;;;;;5072363;28;20064;-66
2021/03/25 00:15:32;;;;;;;13.15;7.30;;;11.70;74.50;;;;;;5073245;28;20388;-65
2021/03/25 00:17:58;;;;;;;27.90;11.35;;;11.60;74.50;;;;;;5076339;28;20036;-65
2021/03/25 00:20:25;;;;;;;20.55;8.77;;;11.60;74.50;;;;;;5083094;28;20032;-65
2021/03/25 00:22:51;;;;;;;19.05;9.20;;;11.50;74.50;;;;;;5072464;28;20483;-65
2021/03/25 00:25:23;;;;;;;26.60;11.23;;;11.60;74.60;;;;;;5072778;28;20020;-65
2021/03/25 00:27:49;;;;;;;29.65;11.20;;;11.50;74.50;;;;;;5073879;28;20032;-65
2021/03/25 00:30:16;;;;;;;24.08;10.10;;;11.50;74.60;;;;;;5086101;28;20027;-65
2021/03/25 00:32:42;;;;;;;23.75;11.13;;;11.50;74.60;;;;;;5085700;28;20039;-65
2021/03/25 00:35:11;;;;;;;25.15;11.68;;;11.50;74.70;;;;;;5073252;28;20029;-65
2021/03/25 00:37:37;;;;;;;26.15;10.98;;;11.50;74.80;;;;;;5072745;28;20121;-65
2021/03/25 00:40:05;;;;;;;25.83;11.10;;;11.50;75.00;;;;;;5072477;28;20067;-65
2021/03/25 00:42:31;;;;;;;29.98;12.70;;;11.50;75.00;;;;;;5072781;28;20028;-65
2021/03/25 00:44:56;;;;;;;23.70;11.13;;;11.50;75.00;;;;;;5072810;28;20357;-65
2021/03/25 00:47:22;;;;;;;25.80;12.00;;;11.50;75.00;;;;;;5072475;28;20494;-65
2021/03/25 00:49:48;;;;;;;31.05;14.20;;;11.50;75.00;;;;;;5072445;28;20093;-65
2021/03/25 00:52:13;;;;;;;35.20;13.52;;;11.40;74.90;;;;;;5072740;28;20379;-65
2021/03/25 00:54:39;;;;;;;30.10;10.52;;;11.40;75.00;;;;;;5072212;28;20533;-65
2021/03/25 00:57:05;;;;;;;34.25;13.15;;;11.50;75.20;;;;;;5072403;28;20122;-65
2021/03/25 00:59:31;;;;;;;28.77;11.00;;;11.40;75.10;;;;;;5072701;28;20028;-65
2021/03/25 01:01:57;;;;;;;33.70;12.90;;;11.40;75.20;;;;;;5085129;28;20064;-65
2021/03/25 01:04:23;;;;;;;29.17;12.75;;;11.40;75.10;;;;;;5091735;28;20530;-65
2021/03/25 01:06:48;;;;;;;36.55;13.80;;;11.40;75.10;;;;;;5072763;28;20032;-65
2021/03/25 01:09:23;;;;;;;34.35;13.93;;;11.40;75.10;;;;;;5071764;28;20486;-65
2021/03/25 01:11:51;;;;;;;31.08;13.10;;;11.40;75.10;;;;;;5081844;28;20024;-65
2021/03/25 01:14:22;;;;;;;27.83;9.82;;;11.30;75.10;;;;;;5062708;28;20056;-65
2021/03/25 01:16:51;;;;;;;29.05;11.05;;;11.40;75.30;;;;;;5054333;28;20032;-65
2021/03/25 01:19:25;;;;;;;30.50;14.13;;;11.30;75.30;;;;;;5072112;28;20491;-65
2021/03/25 01:21:51;;;;;;;28.77;13.95;;;11.30;75.30;;;;;;5054555;28;20032;-65
2021/03/25 01:24:18;;;;;;;30.05;14.48;;;11.30;75.40;;;;;;5072341;28;20028;-65
2021/03/25 01:26:45;;;;;;;29.00;14.90;;;11.20;75.40;;;;;;5072455;28;20033;-65
2021/03/25 01:29:13;;;;;;;36.08;14.45;;;11.20;75.90;;;;;;5066581;28;20386;-65
2021/03/25 01:31:40;;;;;;;38.63;14.88;;;11.20;75.20;;;;;;5090873;28;20111;-65
2021/03/25 01:34:10;;;;;;;35.92;14.05;;;11.20;75.10;;;;;;5064973;28;20056;-65
2021/03/25 01:36:37;;;;;;;31.55;14.13;;;11.20;74.80;;;;;;5075461;28;20497;-65
2021/03/25 01:39:03;;;;;;;33.65;15.35;;;11.30;74.60;;;;;;5058064;28;20115;-65
2021/03/25 01:41:33;;;;;;;29.42;15.05;;;11.40;74.50;;;;;;5076151;28;20063;-65
2021/03/25 01:44:01;;;;;;;34.70;14.52;;;11.30;74.10;;;;;;5049666;28;20124;-65
2021/03/25 01:46:30;;;;;;;26.20;13.13;;;11.30;74.00;;;;;;5063089;28;20460;-65
2021/03/25 01:49:04;;;;;;;29.92;13.90;;;11.30;73.90;;;;;;5058076;28;20025;-65
2021/03/25 01:52:05;;;;;;;28.25;14.75;;;11.30;73.80;;;;;;5057192;28;20063;-65
2021/03/25 01:54:53;;;;;;;30.42;13.50;;;11.30;73.70;;;;;;5057880;28;20029;-64
2021/03/25 01:57:42;;;;;;;29.70;13.77;;;11.30;73.60;;;;;;5056977;28;20055;-65
2021/03/25 02:00:54;;;;;;;35.58;13.13;;;11.30;73.60;;;;;;5075699;28;20032;-65
2021/03/25 02:03:46;;;;;;;28.17;14.05;;;11.30;73.60;;;;;;4983475;28;20030;-65
2021/03/25 02:06:31;;;;;;;28.25;13.82;;;11.30;73.50;;;;;;4977716;28;20033;-65
2021/03/25 02:09:12;;;;;;;28.90;13.27;;;11.20;73.30;;;;;;5061371;28;20040;-65
2021/03/25 02:12:07;;;;;;;26.25;13.18;;;11.30;73.20;;;;;;5057252;28;20495;-65
2021/03/25 02:14:52;;;;;;;26.58;11.93;;;11.20;73.10;;;;;;5057541;28;20036;-65
2021/03/25 02:17:39;;;;;;;28.25;14.20;;;11.20;73.10;;;;;;5057269;28;20131;-65
2021/03/25 02:20:49;;;;;;;25.35;12.88;;;11.10;73.10;;;;;;5075450;28;20039;-65
2021/03/25 02:23:44;;;;;;;27.55;12.85;;;11.10;73.00;;;;;;5075285;28;20476;-65
2021/03/25 02:26:21;;;;;;;32.88;12.38;;;11.10;73.00;;;;;;5052183;28;20127;-65
2021/03/25 02:29:19;;;;;;;31.20;12.45;;;11.10;73.00;;;;;;5057335;28;20039;-65
2021/03/25 02:31:53;;;;;;;32.30;12.80;;;11.00;73.00;;;;;;5074609;28;20029;-65
2021/03/25 02:34:26;;;;;;;28.95;11.57;;;11.00;72.90;;;;;;5075324;28;20041;-65
2021/03/25 02:37:22;;;;;;;28.75;11.23;;;11.00;72.90;;;;;;5057012;28;20076;-65
2021/03/25 02:39:59;;;;;;;28.10;11.50;;;11.00;73.00;;;;;;5055071;28;20173;-65
2021/03/25 02:42:48;;;;;;;28.02;13.05;;;10.90;73.20;;;;;;5074876;28;20090;-65
2021/03/25 02:45:30;;;;;;;24.48;12.85;;;10.90;72.80;;;;;;5056314;28;20048;-65
2021/03/25 02:48:03;;;;;;;21.50;11.50;;;10.90;73.00;;;;;;5069523;28;20391;-65
2021/03/25 02:50:43;;;;;;;25.77;13.10;;;10.80;73.00;;;;;;5075232;28;20079;-65
2021/03/25 02:53:29;;;;;;;28.45;11.10;;;10.80;73.20;;;;;;5070199;28;20093;-65
2021/03/25 02:56:00;;;;;;;27.73;11.55;;;10.70;73.30;;;;;;5074584;28;20034;-65
2021/03/25 02:58:35;;;;;;;33.67;11.93;;;10.70;73.60;;;;;;5056672;28;20059;-65
2021/03/25 03:01:09;;;;;;;33.78;12.15;;;10.70;73.80;;;;;;5068855;28;20025;-65
2021/03/25 03:03:45;;;;;;;24.80;10.30;;;10.60;73.90;;;;;;5063207;28;20115;-65
2021/03/25 03:06:41;;;;;;;26.92;12.40;;;10.50;74.00;;;;;;5074688;28;20033;-65
2021/03/25 03:09:21;;;;;;;32.00;12.98;;;10.50;74.10;;;;;;5078812;28;20026;-65
2021/03/25 03:11:53;;;;;;;27.67;13.00;;;10.40;74.20;;;;;;5091768;28;20024;-65
2021/03/25 03:14:25;;;;;;;31.00;13.73;;;10.40;74.30;;;;;;5091048;28;20025;-65
2021/03/25 03:17:02;;;;;;;25.13;11.68;;;10.40;74.40;;;;;;5089570;28;20119;-65
2021/03/25 03:19:44;;;;;;;27.50;12.13;;;10.30;74.40;;;;;;5056518;28;20383;-65
2021/03/25 03:22:13;;;;;;;32.70;13.43;;;10.30;74.50;;;;;;5062322;28;20036;-65
2021/03/25 03:24:51;;;;;;;33.50;13.70;;;10.30;74.60;;;;;;5062128;28;20098;-64
2021/03/25 03:27:52;;;;;;;27.80;13.80;;;10.20;74.50;;;;;;5056377;28;20043;-64
2021/03/25 03:30:42;;;;;;;33.13;15.20;;;10.20;74.60;;;;;;5090076;28;20066;-65
2021/03/25 03:37:44;;;;;;;29.95;14.40;;;10.20;74.70;;;;;;5090544;28;20036;-65
2021/03/25 03:40:34;;;;;;;26.88;13.77;;;10.10;74.50;;;;;;5091192;28;20072;-65
2021/03/25 03:43:08;;;;;;;34.90;14.45;;;10.10;74.50;;;;;;5069843;28;20058;-65
2021/03/25 03:45:52;;;;;;;30.27;13.55;;;10.10;74.50;;;;;;5088729;28;20495;-65
2021/03/25 03:48:44;;;;;;;36.25;16.13;;;10.10;74.50;;;;;;5073440;28;20542;-65
2021/03/25 03:51:20;;;;;;;32.42;14.93;;;10.00;74.30;;;;;;5089917;28;20059;-65
2021/03/25 03:53:46;;;;;;;31.55;15.02;;;10.00;74.30;;;;;;5072125;28;20476;-65
2021/03/25 03:56:38;;;;;;;30.98;14.90;;;10.10;74.20;;;;;;5073980;28;20028;-65
2021/03/25 03:59:26;;;;;;;33.95;14.95;;;10.10;74.00;;;;;;5070474;28;20036;-65
2021/03/25 04:02:02;;;;;;;31.98;15.38;;;10.10;73.80;;;;;;5072927;28;20125;-65
2021/03/25 04:04:38;;;;;;;26.52;14.05;;;10.10;73.60;;;;;;5068827;28;20024;-65
2021/03/25 04:07:28;;;;;;;34.40;16.25;;;10.10;73.40;;;;;;5089142;28;20442;-65
2021/03/25 04:10:09;;;;;;;38.03;16.33;;;10.10;73.20;;;;;;5071153;28;20032;-65
2021/03/25 04:12:44;;;;;;;33.10;16.20;;;10.00;73.10;;;;;;5069141;28;20107;-65
2021/03/25 04:15:26;;;;;;;40.75;16.83;;;10.00;73.20;;;;;;5072486;28;20032;-65
2021/03/25 04:18:17;;;;;;;32.53;15.85;;;10.00;73.20;;;;;;5071066;28;20036;-65
2021/03/25 04:21:16;;;;;;;40.58;16.40;;;10.00;73.20;;;;;;5080568;28;20042;-65
2021/03/25 04:23:44;;;;;;;38.67;15.75;;;10.00;73.30;;;;;;5077670;28;20090;-65
2021/03/25 04:26:21;;;;;;;36.08;14.82;;;9.90;73.40;;;;;;5080755;28;20024;-65
2021/03/25 04:29:05;;;;;;;36.67;17.45;;;9.90;73.50;;;;;;5077255;28;20094;-65
2021/03/25 04:31:32;;;;;;;34.72;16.98;;;9.80;73.70;;;;;;5081418;28;20024;-66
2021/03/25 04:33:59;;;;;;;35.95;16.38;;;9.80;73.80;;;;;;5077234;28;20075;-65
2021/03/25 04:36:29;;;;;;;35.25;16.58;;;9.80;73.80;;;;;;5081472;28;20563;-65
2021/03/25 04:38:56;;;;;;;36.53;15.80;;;9.80;74.00;;;;;;5076754;28;20048;-65
2021/03/25 04:41:23;;;;;;;31.92;16.65;;;9.70;74.00;;;;;;5079859;28;20028;-65
2021/03/25 04:43:58;;;;;;;34.03;15.77;;;9.70;74.00;;;;;;5078270;28;20059;-65
2021/03/25 04:47:04;;;;;;;37.20;16.75;;;9.70;73.90;;;;;;5078811;28;20361;-65
2021/03/25 04:49:44;;;;;;;40.42;16.92;;;9.80;73.90;;;;;;5076957;28;20467;-65
2021/03/25 04:52:18;;;;;;;26.73;13.15;;;9.70;73.70;;;;;;5076690;28;20027;-65
2021/03/25 04:54:43;;;;;;;;;;;9.70;73.80;;;;;;5078340;28;20046;-65
2021/03/25 04:57:33;;;;;;;39.25;17.20;;;9.70;74.60;;;;;;5079936;28;20003;-65
2021/03/25 05:00:06;;;;;;;32.47;14.02;;;9.60;74.00;;;;;;5080517;28;20032;-65
2021/03/25 05:02:34;;;;;;;46.65;17.65;;;9.60;74.20;;;;;;5078824;28;20029;-65
2021/03/25 05:05:02;;;;;;;40.50;17.08;;;9.50;74.20;;;;;;5078723;28;20033;-65
2021/03/25 05:07:31;;;;;;;41.03;17.58;;;9.60;74.30;;;;;;5078864;28;20147;-65
2021/03/25 05:09:59;;;;;;;38.58;18.67;;;9.50;74.30;;;;;;5072332;28;20112;-64
2021/03/25 05:12:26;;;;;;;41.35;17.50;;;9.50;74.30;;;;;;5095498;28;20030;-65
2021/03/25 05:15:08;;;;;;;38.10;17.88;;;9.50;74.30;;;;;;5074440;28;20021;-65
2021/03/25 05:18:03;;;;;;;37.50;14.82;;;9.50;74.40;;;;;;5072329;28;20045;-65
2021/03/25 05:20:42;;;;;;;41.72;17.40;;;9.50;74.40;;;;;;5072137;28;20028;-65
2021/03/25 05:23:30;;;;;;;40.38;18.10;;;9.50;74.40;;;;;;5072019;28;20032;-65
2021/03/25 05:26:11;;;;;;;50.20;20.98;;;9.40;74.40;;;;;;5084229;28;20383;-65
2021/03/25 05:28:52;;;;;;;42.40;19.67;;;9.40;74.40;;;;;;5092203;28;20021;-65
2021/03/25 05:31:19;;;;;;;47.63;20.42;;;9.40;74.30;;;;;;5092290;28;20060;-65
2021/03/25 05:33:52;;;;;;;50.97;19.48;;;9.50;74.30;;;;;;5092552;28;20467;-65
2021/03/25 05:36:19;;;;;;;47.67;21.13;;;9.50;74.30;;;;;;5092279;28;20036;-65
2021/03/25 05:38:45;;;;;;;50.58;21.15;;;9.50;74.20;;;;;;5092055;28;20036;-65
2021/03/25 05:41:40;;;;;;;49.92;21.20;;;9.50;74.20;;;;;;5092621;28;20078;-65
2021/03/25 05:44:44;;;;;;;46.83;18.55;;;9.50;74.10;;;;;;5072236;28;20020;-66
2021/03/25 05:47:20;;;;;;;41.20;19.67;;;9.50;74.00;;;;;;5072267;28;20078;-65
2021/03/25 05:50:23;;;;;;;47.47;19.20;;;9.50;73.90;;;;;;5071755;28;20043;-65
2021/03/25 05:52:55;;;;;;;48.33;22.10;;;9.50;73.90;;;;;;5072224;28;20024;-65
2021/03/25 05:55:41;;;;;;;48.28;20.55;;;9.40;73.80;;;;;;5071998;28;20033;-66
2021/03/25 05:58:22;;;;;;;45.55;20.10;;;9.40;73.90;;;;;;5071629;28;20056;-65
2021/03/25 06:01:12;;;;;;;43.85;19.92;;;9.40;73.90;;;;;;5072303;28;20025;-65
2021/03/25 06:03:45;;;;;;;49.95;22.83;;;9.40;74.60;;;;;;5071735;28;20035;-65
2021/03/25 06:06:46;;;;;;;50.42;23.00;;;9.40;74.00;;;;;;5071867;28;20475;-65
2021/03/25 06:09:11;;;;;;;47.85;21.50;;;9.40;74.10;;;;;;5072463;28;20045;-64
2021/03/25 06:11:51;;;;;;;54.63;22.50;;;9.40;74.00;;;;;;5074449;28;20070;-65
2021/03/25 06:14:44;;;;;;;48.17;21.70;;;9.40;74.20;;;;;;5084411;28;20500;-65
2021/03/25 06:17:15;;;;;;;53.33;22.35;;;9.40;74.20;;;;;;5085721;28;20043;-65
2021/03/25 06:20:02;;;;;;;49.03;22.45;;;9.40;74.20;;;;;;5085294;28;20474;-65
2021/03/25 06:22:33;;;;;;;48.05;21.70;;;9.40;74.30;;;;;;5088922;28;20035;-65
2021/03/25 06:25:34;;;;;;;54.35;21.02;;;9.40;74.20;;;;;;5087605;28;20043;-65
2021/03/25 06:28:20;;;;;;;55.03;23.10;;;9.40;74.20;;;;;;5089656;28;20111;-66
2021/03/25 06:31:06;;;;;;;51.95;21.52;;;9.40;74.20;;;;;;5091506;28;20020;-65
2021/03/25 06:33:38;;;;;;;42.75;18.13;;;9.40;74.00;;;;;;5091619;28;20031;-65
2021/03/25 06:36:10;;;;;;;49.80;21.25;;;9.40;74.00;;;;;;5092378;28;20055;-65
2021/03/25 06:38:41;;;;;;;49.88;17.60;;;9.40;74.20;;;;;;5093073;28;20059;-65
2021/03/25 06:41:11;;;;;;;42.42;13.48;;;9.40;74.30;;;;;;5093304;28;20032;-65
2021/03/25 06:43:44;;;;;;;47.42;21.48;;;9.30;74.40;;;;;;5092751;28;20034;-65
2021/03/25 06:46:23;;;;;;;;;;;9.30;74.70;;;;;;5087621;28;20028;-65
2021/03/25 06:48:56;;;;;;;41.22;16.95;;;9.30;74.60;;;;;;5089202;28;19919;-65
2021/03/25 06:51:26;;;;;;;53.63;22.75;;;9.30;74.70;;;;;;5090619;28;20444;-66
2021/03/25 06:54:17;;;;;;;47.53;20.73;;;9.30;75.00;;;;;;5087243;28;20379;-65
2021/03/25 06:56:46;;;;;;;45.67;19.33;;;9.30;75.20;;;;;;5076099;28;20685;-65
2021/03/25 06:59:18;;;;;;;57.38;24.50;;;9.30;75.20;;;;;;5092655;28;20032;-66
2021/03/25 07:01:49;;;;;;;59.30;25.40;;;9.30;75.50;;;;;;5090677;28;20063;-65
2021/03/25 07:04:20;;;;;;;58.13;22.52;;;9.30;76.20;;;;;;5091445;28;20035;-65
2021/03/25 07:06:46;;;;;;;49.90;20.75;;;9.40;75.50;;;;;;5086674;28;20468;-65
2021/03/25 07:09:13;;;;;;;69.47;25.33;;;9.30;75.50;;;;;;5092918;28;20027;-65
2021/03/25 07:11:42;;;;;;;56.78;24.83;;;9.30;75.80;;;;;;5091938;28;20051;-65
2021/03/25 07:14:17;;;;;;;55.28;24.83;;;9.30;75.90;;;;;;5090900;28;20403;-65
2021/03/25 07:16:46;;;;;;;61.65;25.23;;;9.40;76.20;;;;;;5092315;28;20032;-65
2021/03/25 07:19:21;;;;;;;63.88;26.25;;;9.30;76.10;;;;;;5087637;28;20429;-65
2021/03/25 07:21:51;;;;;;;61.50;25.58;;;9.50;76.30;;;;;;5090586;28;20032;-65
2021/03/25 07:24:23;;;;;;;66.97;25.90;;;9.50;76.50;;;;;;5091969;28;20102;-65
2021/03/25 07:26:59;;;;;;;59.63;24.67;;;9.50;76.60;;;;;;5083248;28;20033;-65
2021/03/25 07:29:34;;;;;;;68.28;26.98;;;9.60;76.50;;;;;;5085613;28;20125;-65
2021/03/25 07:32:05;;;;;;;65.05;27.20;;;9.50;76.50;;;;;;5091951;28;20046;-65
2021/03/25 07:34:43;;;;;;;68.15;28.98;;;9.60;76.90;;;;;;5094852;28;20443;-65
2021/03/25 07:37:11;;;;;;;59.90;25.88;;;9.60;76.90;;;;;;5089239;28;20055;-65
2021/03/25 07:39:44;;;;;;;69.10;27.67;;;9.60;76.60;;;;;;5090304;28;20028;-65
2021/03/25 07:42:10;;;;;;;63.35;25.58;;;9.70;76.70;;;;;;5089793;28;20475;-65
2021/03/25 07:44:38;;;;;;;73.95;28.17;;;9.70;76.60;;;;;;5091830;28;20044;-65
2021/03/25 07:47:23;;;;;;;69.43;28.05;;;9.70;76.70;;;;;;5074453;28;20024;-65
2021/03/25 07:49:50;;;;;;;48.78;20.77;;;9.70;76.90;;;;;;5091404;28;20039;-65
2021/03/25 07:52:31;;;;;;;47.42;16.85;;;9.60;76.50;;;;;;5089981;28;20107;-65
2021/03/25 07:55:21;;;;;;;73.28;25.92;;;9.60;76.40;;;;;;5079425;28;20490;-65
2021/03/25 07:57:49;;;;;;;68.88;26.42;;;9.60;76.50;;;;;;5090084;28;20060;-65
2021/03/25 08:00:23;;;;;;;15.88;7.32;;;9.70;76.80;;;;;;5091682;28;20028;-65
2021/03/25 08:03:15;;;;;;;64.72;25.60;;;9.60;76.40;;;;;;5098090;28;20028;-65
2021/03/25 08:05:43;;;;;;;69.43;25.95;;;9.70;76.60;;;;;;5090773;28;20077;-65
2021/03/25 08:08:25;;;;;;;62.58;25.90;;;9.70;76.60;;;;;;5092467;28;20099;-67
2021/03/25 08:11:05;;;;;;;48.05;18.60;;;9.70;77.00;;;;;;5086703;28;20463;-68
2021/03/25 08:13:32;;;;;;;43.92;17.63;;;9.70;76.90;;;;;;5093333;28;20027;-72
2021/03/25 08:16:14;;;;;;;22.58;9.80;;;9.70;76.70;;;;;;5105579;28;20078;-67
2021/03/25 08:19:06;;;;;;;21.73;7.13;;;9.70;76.60;;;;;;5089104;28;20078;-67
2021/03/25 08:21:40;;;;;;;25.75;9.95;;;9.80;76.60;;;;;;5064798;28;20488;-67
2021/03/25 08:24:16;;;;;;;46.53;17.60;;;9.70;76.70;;;;;;5088942;28;20101;-67
2021/03/25 08:26:53;;;;;;;36.15;16.83;;;9.70;77.20;;;;;;5070895;28;20039;-67
2021/03/25 08:29:29;;;;;;;23.90;11.18;;;9.70;77.30;;;;;;5089584;28;20028;-65
2021/03/25 08:31:58;;;;;;;36.58;13.20;;;9.70;77.80;;;;;;5089011;28;20483;-65
2021/03/25 08:34:41;;;;;;;37.50;16.25;;;9.70;78.10;;;;;;5090809;28;20032;-65
2021/03/25 08:37:21;;;;;;;13.57;6.25;;;9.70;78.50;;;;;;5091343;28;20041;-65
2021/03/25 08:40:22;;;;;;;43.17;17.30;;;9.70;78.70;;;;;;5085724;28;20031;-65
2021/03/25 08:42:59;;;;;;;37.97;15.48;;;9.70;79.00;;;;;;5087053;28;20028;-65
2021/03/25 08:45:36;;;;;;;28.15;11.85;;;9.70;79.20;;;;;;5074518;28;20028;-65
2021/03/25 08:48:12;;;;;;;27.67;11.75;;;9.80;79.40;;;;;;5075046;28;20490;-65
2021/03/25 08:50:56;;;;;;;48.90;15.02;;;9.80;79.70;;;;;;5079671;28;20024;-65
2021/03/25 08:53:33;;;;;;;31.20;12.13;;;9.80;80.10;;;;;;5091843;28;20476;-66
2021/03/25 08:56:02;;;;;;;49.35;13.93;;;9.80;80.60;;;;;;5079677;28;20028;-65
2021/03/25 08:58:33;;;;;;;43.00;15.60;;;9.80;80.70;;;;;;5091634;28;20056;-67
2021/03/25 09:01:04;;;;;;;25.60;11.07;;;9.80;80.90;;;;;;5097653;28;20023;-67
2021/03/25 09:03:48;;;;;;;22.02;9.52;;;9.80;81.10;;;;;;5099368;28;20039;-64
2021/03/25 09:06:35;;;;;;;20.48;8.75;;;9.90;81.50;;;;;;5092240;28;20070;-65
2021/03/25 09:09:29;;;;;;;28.73;10.57;;;9.90;81.60;;;;;;5090318;28;20064;-64
2021/03/25 09:11:56;;;;;;;22.30;9.18;;;9.90;81.80;;;;;;5088263;28;20039;-65
2021/03/25 09:14:24;;;;;;;41.45;16.05;;;10.00;82.00;;;;;;5088186;28;20110;-64
2021/03/25 09:16:50;;;;;;;26.90;11.00;;;10.00;82.20;;;;;;5090013;28;20024;-65
2021/03/25 09:19:23;;;;;;;22.63;11.52;;;10.10;82.30;;;;;;5090276;28;20051;-65
2021/03/25 09:21:56;;;;;;;36.75;11.25;;;10.10;82.40;;;;;;5087773;28;20081;-65
2021/03/25 09:24:22;;;;;;;33.22;14.52;;;10.10;82.50;;;;;;5087709;28;20085;-65
2021/03/25 09:26:54;;;;;;;25.63;10.63;;;10.20;82.60;;;;;;5088535;28;20020;-65
2021/03/25 09:29:29;;;;;;;30.50;12.88;;;10.20;82.70;;;;;;5082435;28;20028;-65
2021/03/25 09:31:54;;;;;;;33.72;13.75;;;10.30;83.00;;;;;;5091662;28;20028;-65
2021/03/25 09:34:23;;;;;;;23.45;10.93;;;10.30;83.00;;;;;;5100342;28;20103;-65
2021/03/25 09:37:04;;;;;;;16.45;8.10;;;10.30;83.10;;;;;;5092777;28;20457;-64
2021/03/25 09:39:35;;;;;;;13.60;7.25;;;10.30;83.20;;;;;;5091145;28;20031;-65
2021/03/25 09:42:17;;;;;;;11.25;5.07;;;10.40;83.30;;;;;;5089164;28;20123;-65
2021/03/25 09:44:43;;;;;;;40.05;12.95;;;10.40;83.30;;;;;;5090742;28;20036;-65
2021/03/25 09:47:11;;;;;;;21.50;9.10;;;10.50;83.40;;;;;;5089360;28;20032;-64
2021/03/25 09:50:12;;;;;;;45.10;19.00;;;10.60;83.30;;;;;;5090087;28;20028;-64
2021/03/25 09:53:11;;;;;;;24.35;8.68;;;10.60;83.20;;;;;;5078426;28;20524;-65
2021/03/25 09:55:38;;;;;;;21.10;9.90;;;10.70;83.10;;;;;;5060873;28;20491;-65
2021/03/25 09:58:25;;;;;;;30.15;9.57;;;10.80;83.10;;;;;;5092670;28;20075;-65
2021/03/25 10:00:52;;;;;;;22.90;11.05;;;10.90;83.20;;;;;;5095097;28;20072;-65
2021/03/25 10:03:57;;;;;;;23.40;9.18;;;10.90;83.10;;;;;;5101221;28;20390;-64
2021/03/25 10:06:46;;;;;;;26.15;10.23;;;10.90;83.10;;;;;;5083380;28;20030;-77
2021/03/25 10:09:11;;;;;;;14.40;7.20;;;11.00;83.10;;;;;;5084151;28;20489;-65
2021/03/25 10:11:46;;;;;;;18.88;7.15;;;11.10;83.10;;;;;;5091374;28;20056;-66
2021/03/25 10:14:46;;;;;;;20.70;8.20;;;11.10;83.10;;;;;;5059313;28;20040;-65
2021/03/25 10:17:42;;;;;;;39.90;15.50;;;11.20;83.00;;;;;;5075330;28;20063;-65
2021/03/25 10:20:11;;;;;;;32.50;11.15;;;11.20;82.90;;;;;;5082837;28;20474;-65
2021/03/25 10:22:36;;;;;;;28.20;9.95;;;11.30;83.00;;;;;;5075373;28;20055;-65
2021/03/25 10:25:06;;;;;;;24.40;10.90;;;11.30;83.00;;;;;;5075250;28;20028;-65
2021/03/25 10:27:42;;;;;;;20.55;10.27;;;11.40;83.10;;;;;;5075586;28;20055;-65
2021/03/25 10:30:23;;;;;;;35.42;14.95;;;11.50;83.20;;;;;;5074210;28;20040;-66
2021/03/25 10:32:49;;;;;;;15.00;5.05;;;11.50;82.80;;;;;;5092155;28;20490;-65
2021/03/25 10:35:29;;;;;;;17.25;6.53;;;11.60;82.90;;;;;;5077987;28;20494;-65
2021/03/25 10:37:58;;;;;;;19.92;9.65;;;11.70;82.90;;;;;;5074725;28;20449;-65
2021/03/25 10:40:37;;;;;;;24.10;11.60;;;11.70;82.80;;;;;;5061622;28;20028;-65
2021/03/25 10:43:07;;;;;;;21.10;9.75;;;11.70;82.70;;;;;;5082669;28;20025;-65
2021/03/25 10:45:53;;;;;;;17.25;6.20;;;11.80;82.70;;;;;;5074923;28;20029;-65
2021/03/25 10:48:29;;;;;;;37.60;12.90;;;11.80;82.80;;;;;;5075291;28;20365;-65
2021/03/25 10:50:59;;;;;;;24.35;9.68;;;11.80;83.00;;;;;;5080454;28;20042;-65
2021/03/25 10:53:32;;;;;;;16.25;7.70;;;11.90;83.00;;;;;;5080718;28;20471;-65
2021/03/25 10:56:23;;;;;;;15.80;6.47;;;11.90;82.90;;;;;;5075043;28;20111;-65
2021/03/25 10:58:57;;;;;;;19.73;9.02;;;12.00;82.90;;;;;;5075097;28;20055;-68
2021/03/25 11:01:29;;;;;;;25.77;11.25;;;12.10;83.40;;;;;;5093418;28;20040;-65
2021/03/25 11:03:55;;;;;;;40.33;14.95;;;12.10;82.50;;;;;;5092024;28;20428;-64
2021/03/25 11:06:39;;;;;;;26.38;12.63;;;12.20;82.40;;;;;;5103991;28;20058;-65
2021/03/25 11:09:31;;;;;;;8.73;4.97;;;12.30;82.40;;;;;;5079741;28;20093;-66
2021/03/25 11:12:02;;;;;;;30.25;13.77;;;12.40;82.50;;;;;;5072554;28;20040;-65
2021/03/25 11:14:46;;;;;;;27.42;12.88;;;12.40;82.00;;;;;;5073875;28;20119;-65
2021/03/25 11:17:15;;;;;;;28.02;10.95;;;12.50;82.30;;;;;;5074154;28;20044;-65
2021/03/25 11:19:42;;;;;;;19.63;9.82;;;12.50;82.10;;;;;;5075169;28;20066;-65
2021/03/25 11:22:11;;;;;;;23.25;9.93;;;12.60;82.10;;;;;;5074090;28;20033;-65
2021/03/25 11:24:38;;;;;;;18.23;10.25;;;12.60;81.80;;;;;;5079461;28;20442;-65
2021/03/25 11:27:11;;;;;;;28.02;13.25;;;12.70;81.80;;;;;;5090545;28;20016;-64
2021/03/25 11:29:40;;;;;;;20.90;9.63;;;12.70;81.80;;;;;;5091777;28;20032;-70
2021/03/25 11:32:22;;;;;;;27.73;13.73;;;12.70;81.60;;;;;;5092869;28;20029;-65
2021/03/25 11:34:51;;;;;;;12.18;4.80;;;12.80;81.60;;;;;;5084884;28;20056;-65
2021/03/25 11:37:23;;;;;;;14.73;6.97;;;12.80;81.20;;;;;;5089984;28;20039;-73
2021/03/25 11:40:08;;;;;;;23.17;8.63;;;12.80;81.20;;;;;;5091233;28;20052;-68
2021/03/25 11:42:34;;;;;;;19.15;8.43;;;12.90;81.10;;;;;;5079351;28;20391;-65
2021/03/25 11:45:01;;;;;;;22.35;9.48;;;12.90;81.10;;;;;;5090484;28;20416;-66
2021/03/25 11:47:46;;;;;;;20.15;8.35;;;13.00;81.00;;;;;;5089771;28;20039;-67
2021/03/25 11:50:17;;;;;;;21.48;10.38;;;13.00;81.20;;;;;;5086199;28;20020;-67
2021/03/25 11:52:48;;;;;;;23.67;10.15;;;13.10;81.10;;;;;;5083039;28;20068;-65
2021/03/25 11:55:23;;;;;;;23.20;9.00;;;13.10;80.80;;;;;;5087204;28;20065;-65
2021/03/25 11:57:50;;;;;;;23.88;8.63;;;13.20;81.00;;;;;;5087470;28;20055;-65
2021/03/25 12:00:22;;;;;;;21.55;9.88;;;13.20;80.80;;;;;;5073754;28;20073;-66
2021/03/25 12:02:49;;;;;;;13.75;6.43;;;13.30;80.40;;;;;;5070944;28;20039;-70
2021/03/25 12:05:30;;;;;;;14.35;7.43;;;13.30;80.60;;;;;;5095069;28;20498;-66
2021/03/25 12:08:30;;;;;;;23.10;8.57;;;13.40;80.50;;;;;;5090203;28;20028;-66
2021/03/25 12:11:09;;;;;;;29.00;10.23;;;13.40;80.30;;;;;;5074624;28;20059;-66
2021/03/25 12:13:37;;;;;;;13.93;7.75;;;13.50;80.00;;;;;;5073420;28;20059;-66
2021/03/25 12:16:02;;;;;;;29.92;12.13;;;13.50;80.10;;;;;;5072232;28;20036;-66
2021/03/25 12:18:35;;;;;;;19.10;9.20;;;13.60;80.20;;;;;;5071895;28;20059;-66
2021/03/25 12:21:09;;;;;;;18.90;9.25;;;13.60;80.10;;;;;;5089014;28;20107;-66
2021/03/25 12:23:36;;;;;;;;;;;13.60;79.70;;;;;;5088988;28;20062;-66
2021/03/25 12:26:05;;;;;;;26.40;11.55;;;13.60;79.70;;;;;;5088799;28;19912;-66
2021/03/25 12:28:31;;;;;;;18.23;8.60;;;13.70;79.90;;;;;;5091615;28;20036;-66
2021/03/25 12:30:57;;;;;;;16.38;8.18;;;13.60;80.00;;;;;;5087602;28;20035;-66
2021/03/25 12:33:31;;;;;;;15.25;7.40;;;13.70;80.40;;;;;;5089420;28;20059;-66
2021/03/25 12:36:00;;;;;;;13.68;5.75;;;13.70;80.60;;;;;;5094331;28;20108;-66
2021/03/25 12:38:27;;;;;;;21.30;9.52;;;13.70;80.60;;;;;;5091215;28;20138;-66
2021/03/25 12:40:54;;;;;;;15.02;9.20;;;13.80;80.60;;;;;;5072874;28;20035;-65
2021/03/25 12:43:23;;;;;;;10.35;5.68;;;13.80;80.20;;;;;;5075093;28;20468;-66
2021/03/25 12:45:56;;;;;;;25.27;9.70;;;13.80;80.10;;;;;;5072682;28;20430;-65
2021/03/25 12:48:23;;;;;;;26.20;12.25;;;13.80;80.00;;;;;;5088487;28;20035;-66
2021/03/25 12:50:51;;;;;;;25.27;9.80;;;13.90;79.80;;;;;;5088927;28;20502;-66
2021/03/25 12:53:21;;;;;;;25.08;8.20;;;13.90;79.70;;;;;;5086681;28;20056;-66
2021/03/25 12:55:50;;;;;;;27.98;10.57;;;13.90;79.80;;;;;;5085139;28;20078;-66
2021/03/25 12:58:51;;;;;;;26.08;8.93;;;14.00;79.80;;;;;;5079997;28;20051;-66
2021/03/25 13:01:21;;;;;;;21.92;11.18;;;14.00;79.90;;;;;;5081651;28;20073;-67
2021/03/25 13:03:47;;;;;;;16.70;8.43;;;14.00;79.60;;;;;;5086813;28;20136;-65
2021/03/25 13:06:14;;;;;;;23.25;10.88;;;14.00;79.70;;;;;;5086880;28;20036;-65
2021/03/25 13:08:40;;;;;;;17.83;8.02;;;14.10;79.70;;;;;;5081592;28;20050;-65
2021/03/25 13:11:08;;;;;;;26.55;12.63;;;14.10;79.90;;;;;;5082162;28;20035;-65
2021/03/25 13:13:34;;;;;;;14.70;7.88;;;14.10;80.00;;;;;;5080496;28;20479;-65
2021/03/25 13:16:00;;;;;;;24.27;8.63;;;14.20;80.00;;;;;;5087091;28;20028;-66
2021/03/25 13:18:26;;;;;;;27.05;13.77;;;14.20;80.10;;;;;;5082834;28;20041;-66
2021/03/25 13:20:53;;;;;;;25.52;12.90;;;14.30;79.90;;;;;;5085572;28;20032;-65